createdAt,value
2022-08-07T00:00:40.147Z,101219.56
2022-08-07T00:02:44.341Z,101222.97
2022-08-07T00:04:47.551Z,101223.97
2022-08-07T00:06:51.620Z,101229.19
2022-08-07T00:08:55.279Z,101228.44
2022-08-07T00:10:59.577Z,101216.22
2022-08-07T00:13:17.509Z,101224.16
2022-08-07T00:15:35.956Z,101225.19
2022-08-07T00:17:41.400Z,101223.59
2022-08-07T00:20:01.218Z,101223.44
2022-08-07T00:22:06.689Z,101232.19
2022-08-07T00:24:10.282Z,101226.84
2022-08-07T00:26:31.108Z,101213.63
2022-08-07T00:28:45.670Z,101217.28
2022-08-07T00:30:49.365Z,101219.97
2022-08-07T00:32:52.932Z,101212.81
2022-08-07T00:34:56.030Z,101217.25
2022-08-07T00:36:58.909Z,101214.59
2022-08-07T00:39:02.332Z,101212.06
2022-08-07T00:41:10.114Z,101219.00
2022-08-07T00:43:59.156Z,101213.91
2022-08-07T00:45:43.062Z,101213.91
2022-08-07T00:48:09.912Z,101214.78
2022-08-07T00:50:19.370Z,101207.91
2022-08-07T00:52:36.730Z,101202.72
2022-08-07T00:54:40.693Z,101205.41
2022-08-07T00:56:44.634Z,101200.13
2022-08-07T00:59:12.813Z,101212.38
2022-08-07T01:01:41.524Z,101205.50
2022-08-07T01:03:57.236Z,101199.38
2022-08-07T01:06:03.981Z,101204.59
2022-08-07T01:08:08.976Z,101200.22
2022-08-07T01:10:12.119Z,101206.38
2022-08-07T01:12:29.734Z,101207.25
2022-08-07T01:14:37.067Z,101205.44
2022-08-07T01:16:43.126Z,101201.03
2022-08-07T01:18:49.943Z,101201.09
2022-08-07T01:20:59.938Z,101203.69
2022-08-07T01:23:12.350Z,101205.53
2022-08-07T01:25:40.514Z,101205.59
2022-08-07T01:27:41.158Z,101208.34
2022-08-07T01:29:55.346Z,101206.69
2022-08-07T01:31:59.367Z,101210.25
2022-08-07T01:34:05.682Z,101208.41
2022-08-07T01:36:12.919Z,101209.28
2022-08-07T01:38:25.146Z,101207.59
2022-08-07T01:40:32.383Z,101215.53
2022-08-07T01:42:58.740Z,101215.56
2022-08-07T01:45:00.755Z,101211.13
2022-08-07T01:47:14.488Z,101213.75
2022-08-07T01:49:28.022Z,101208.59
2022-08-07T01:52:02.541Z,101216.63
2022-08-07T01:54:11.714Z,101213.06
2022-08-07T01:56:20.738Z,101206.97
2022-08-07T01:58:29.160Z,101203.44
2022-08-07T02:00:33.941Z,101202.63
2022-08-07T02:03:18.471Z,101198.22
2022-08-07T02:05:16.058Z,101200.91
2022-08-07T02:07:49.920Z,101197.34
2022-08-07T02:10:01.551Z,101202.59
2022-08-07T02:12:18.032Z,101196.47
2022-08-07T02:14:35.888Z,101199.09
2022-08-07T02:16:45.424Z,101197.41
2022-08-07T02:18:49.020Z,101199.16
2022-08-07T02:20:57.495Z,101192.09
2022-08-07T02:23:03.194Z,101195.66
2022-08-07T02:25:17.221Z,101190.38
2022-08-07T02:27:34.674Z,101180.75
2022-08-07T02:29:43.444Z,101187.72
2022-08-07T02:31:53.543Z,101184.28
2022-08-07T02:34:03.668Z,101186.94
2022-08-07T02:36:29.286Z,101183.41
2022-08-07T02:38:50.583Z,101182.53
2022-08-07T02:41:04.300Z,101179.84
2022-08-07T02:43:09.988Z,101173.78
2022-08-07T02:45:57.385Z,101172.94
2022-08-07T02:47:48.871Z,101174.75
2022-08-07T02:49:58.933Z,101172.13
2022-08-07T02:52:11.101Z,101178.19
2022-08-07T02:54:19.375Z,101166.81
2022-08-07T02:56:27.987Z,101169.50
2022-08-07T02:58:33.264Z,101170.38
2022-08-07T03:00:39.948Z,101165.94
2022-08-07T03:02:54.984Z,101165.03
2022-08-07T03:05:06.593Z,101165.06
2022-08-07T03:07:11.482Z,101166.84
2022-08-07T03:09:44.659Z,101169.53
2022-08-07T03:11:51.610Z,101162.53
2022-08-07T03:14:02.077Z,101161.63
2022-08-07T03:16:06.089Z,101158.22
2022-08-07T03:18:09.544Z,101155.59
2022-08-07T03:20:20.814Z,101161.72
2022-08-07T03:22:29.647Z,101161.81
2022-08-07T03:24:34.958Z,101163.53
2022-08-07T03:26:48.323Z,101159.94
2022-08-07T03:28:59.996Z,101171.41
2022-08-07T03:31:24.470Z,101158.28
2022-08-07T03:33:32.269Z,101169.69
2022-08-07T03:35:50.258Z,101170.56
2022-08-07T03:38:01.669Z,101169.75
2022-08-07T03:40:15.616Z,101165.38
2022-08-07T03:42:20.585Z,101167.19
2022-08-07T03:44:34.264Z,101165.38
2022-08-07T03:47:13.398Z,101160.06
2022-08-07T03:49:04.073Z,101165.34
2022-08-07T03:51:16.526Z,101171.47
2022-08-07T03:53:50.148Z,101177.59
2022-08-07T03:55:57.692Z,101176.72
2022-08-07T03:58:34.960Z,101173.22
2022-08-07T04:00:35.582Z,101178.50
2022-08-07T04:02:42.976Z,101176.81
2022-08-07T04:04:59.056Z,101168.09
2022-08-07T04:07:02.657Z,101172.50
2022-08-07T04:09:23.071Z,101175.09
2022-08-07T04:12:24.570Z,101180.31
2022-08-07T04:14:33.032Z,101180.38
2022-08-07T04:16:30.088Z,101175.94
2022-08-07T04:19:01.279Z,101188.25
2022-08-07T04:20:58.511Z,101181.25
2022-08-07T04:23:06.602Z,101181.28
2022-08-07T04:25:13.870Z,101189.19
2022-08-07T04:27:25.376Z,101191.81
2022-08-07T04:29:45.689Z,101184.81
2022-08-07T04:32:03.488Z,101190.06
2022-08-07T04:34:16.498Z,101190.03
2022-08-07T04:36:22.921Z,101191.81
2022-08-07T04:38:29.864Z,101193.59
2022-08-07T04:40:34.385Z,101194.44
2022-08-07T04:42:37.370Z,101190.91
2022-08-07T04:44:54.413Z,101190.91
2022-08-07T04:47:10.739Z,101192.69
2022-08-07T04:49:38.671Z,101196.16
2022-08-07T04:51:52.054Z,101202.31
2022-08-07T04:54:06.359Z,101201.44
2022-08-07T04:58:09.807Z,101206.75
2022-08-07T05:01:18.101Z,101212.84
2022-08-07T05:04:00.500Z,101215.47
2022-08-07T05:06:00.627Z,101219.88
2022-08-07T05:08:12.541Z,101221.63
2022-08-07T05:10:22.687Z,101207.53
2022-08-07T05:12:32.997Z,101199.69
2022-08-07T05:14:52.821Z,101207.53
2022-08-07T05:17:05.974Z,101204.84
2022-08-07T05:19:32.752Z,101215.41
2022-08-07T05:21:59.781Z,101208.38
2022-08-07T05:24:07.645Z,101211.94
2022-08-07T05:26:24.495Z,101213.63
2022-08-07T05:28:36.461Z,101221.53
2022-08-07T05:30:47.084Z,101232.06
2022-08-07T05:32:51.613Z,101234.69
2022-08-07T05:34:57.706Z,101230.22
2022-08-07T05:37:00.627Z,101231.09
2022-08-07T05:40:13.500Z,101231.06
2022-08-07T05:42:01.496Z,101231.13
2022-08-07T05:44:12.089Z,101233.75
2022-08-07T05:46:20.296Z,101236.34
2022-08-07T05:48:30.219Z,101239.78
2022-08-07T05:50:35.609Z,101239.78
2022-08-07T05:52:42.681Z,101248.53
2022-08-07T05:54:55.511Z,101245.88
2022-08-07T05:57:02.544Z,101249.41
2022-08-07T05:59:14.488Z,101252.84
2022-08-07T06:01:20.061Z,101246.63
2022-08-07T06:03:26.493Z,101240.47
2022-08-07T06:05:56.353Z,101241.38
2022-08-07T06:08:14.756Z,101246.63
2022-08-07T06:10:24.768Z,101244.88
2022-08-07T06:12:31.991Z,101251.84
2022-08-07T06:14:37.173Z,101235.13
2022-08-07T06:16:41.550Z,101235.94
2022-08-07T06:18:51.484Z,101238.50
2022-08-07T06:22:16.687Z,101237.50
2022-08-07T06:23:46.809Z,101243.63
2022-08-07T06:25:54.722Z,101245.38
2022-08-07T06:28:05.253Z,101242.75
2022-08-07T06:30:31.894Z,101240.03
2022-08-07T06:32:32.876Z,101253.16
2022-08-07T06:34:35.993Z,101239.16
2022-08-07T06:36:44.864Z,101246.91
2022-08-07T06:38:51.595Z,101237.19
2022-08-07T06:41:19.609Z,101237.13
2022-08-07T06:43:46.069Z,101238.03
2022-08-07T06:46:00.145Z,101238.81
2022-08-07T06:48:06.398Z,101242.31
2022-08-07T06:50:15.405Z,101238.69
2022-08-07T06:52:31.683Z,101236.06
2022-08-07T06:55:31.196Z,101230.75
2022-08-07T06:57:04.634Z,101234.03
2022-08-07T07:00:12.928Z,101234.81
2022-08-07T07:01:48.593Z,101234.81
2022-08-07T07:04:04.249Z,101233.03
2022-08-07T07:06:26.314Z,101241.84
2022-08-07T07:08:33.516Z,101246.09
2022-08-07T07:10:36.823Z,101243.38
2022-08-07T07:12:48.751Z,101231.09
2022-08-07T07:15:01.361Z,101233.63
2022-08-07T07:17:16.145Z,101235.25
2022-08-07T07:19:55.578Z,101243.13
2022-08-07T07:22:04.845Z,101236.81
2022-08-07T07:24:17.535Z,101237.56
2022-08-07T07:26:34.802Z,101237.59
2022-08-07T07:29:38.478Z,101232.22
2022-08-07T07:31:17.297Z,101231.28
2022-08-07T07:33:26.587Z,101230.34
2022-08-07T07:35:50.648Z,101230.28
2022-08-07T07:38:02.500Z,101223.16
2022-08-07T07:40:15.066Z,101219.28
2022-08-07T07:42:20.879Z,101221.06
2022-08-07T07:44:26.074Z,101225.31
2022-08-07T07:46:37.800Z,101224.34
2022-08-07T07:49:00.124Z,101224.06
2022-08-07T07:51:15.535Z,101229.47
2022-08-07T07:53:25.733Z,101225.09
2022-08-07T07:55:37.312Z,101219.72
2022-08-07T07:57:53.716Z,101220.41
2022-08-07T08:00:03.540Z,101218.47
2022-08-07T08:02:33.835Z,101217.63
2022-08-07T08:04:39.062Z,101218.41
2022-08-07T08:06:50.889Z,101221.69
2022-08-07T08:08:58.660Z,101213.88
2022-08-07T08:11:08.458Z,101213.94
2022-08-07T08:13:15.451Z,101214.53
2022-08-07T08:15:18.446Z,101219.75
2022-08-07T08:17:58.261Z,101213.56
2022-08-07T08:20:17.733Z,101205.50
2022-08-07T08:22:35.454Z,101208.38
2022-08-07T08:25:18.422Z,101208.94
2022-08-07T08:27:33.595Z,101209.59
2022-08-07T08:29:54.646Z,101199.00
2022-08-07T08:32:16.960Z,101206.03
2022-08-07T08:34:27.371Z,101204.66
2022-08-07T08:36:35.053Z,101197.53
2022-08-07T08:38:41.887Z,101206.41
2022-08-07T08:40:52.324Z,101199.09
2022-08-07T08:43:04.739Z,101203.63
2022-08-07T08:45:19.489Z,101199.53
2022-08-07T08:47:28.648Z,101193.25
2022-08-07T08:49:46.571Z,101194.16
2022-08-07T08:52:13.942Z,101193.44
2022-08-07T08:54:25.288Z,101194.03
2022-08-07T08:56:34.016Z,101192.16
2022-08-07T08:58:47.538Z,101187.88
2022-08-07T09:00:57.299Z,101193.34
2022-08-07T09:03:12.141Z,101192.53
2022-08-07T09:05:37.104Z,101191.13
2022-08-07T09:07:58.020Z,101186.38
2022-08-07T09:10:07.781Z,101180.72
2022-08-07T09:12:30.133Z,101184.88
2022-08-07T09:14:50.744Z,101181.06
2022-08-07T09:17:01.400Z,101180.84
2022-08-07T09:19:52.157Z,101185.38
2022-08-07T09:22:09.761Z,101180.47
2022-08-07T09:24:27.848Z,101172.03
2022-08-07T09:26:47.957Z,101170.03
2022-08-07T09:30:00.764Z,101171.34
2022-08-07T09:31:38.529Z,101167.50
2022-08-07T09:34:16.109Z,101162.41
2022-08-07T09:36:27.050Z,101161.50
2022-08-07T09:38:39.488Z,101161.38
2022-08-07T09:41:03.938Z,101155.44
2022-08-07T09:43:20.039Z,101161.50
2022-08-07T09:47:42.712Z,101159.34
2022-08-07T09:48:43.943Z,101152.81
2022-08-07T09:51:26.008Z,101147.84
2022-08-07T09:53:41.118Z,101146.88
2022-08-07T09:56:15.076Z,101145.06
2022-08-07T09:58:48.729Z,101131.38
2022-08-07T10:01:08.514Z,101132.75
2022-08-07T10:04:05.432Z,101122.91
2022-08-07T10:06:28.048Z,101122.56
2022-08-07T10:08:45.204Z,101122.69
2022-08-07T10:11:17.027Z,101117.13
2022-08-07T10:14:01.003Z,101112.16
2022-08-07T10:16:14.486Z,101108.41
2022-08-07T10:18:51.526Z,101108.09
2022-08-07T10:21:19.799Z,101103.50
2022-08-07T10:24:06.893Z,101105.78
2022-08-07T10:26:30.021Z,101094.38
2022-08-07T10:28:51.905Z,101096.41
2022-08-07T10:31:11.711Z,101093.81
2022-08-07T10:34:14.556Z,101088.19
2022-08-07T10:36:13.218Z,101093.41
2022-08-07T10:38:49.273Z,101081.25
2022-08-07T10:41:05.497Z,101073.41
2022-08-07T10:43:19.461Z,101073.91
2022-08-07T10:45:57.080Z,101077.13
2022-08-07T10:48:12.856Z,101072.97
2022-08-07T10:50:26.050Z,101071.97
2022-08-07T10:52:40.108Z,101058.28
2022-08-07T10:55:01.994Z,101067.94
2022-08-07T10:57:34.263Z,101060.50
2022-08-07T10:59:54.042Z,101060.25
2022-08-07T11:02:11.875Z,101054.91
2022-08-07T11:04:45.580Z,101046.88
2022-08-07T11:07:00.740Z,101039.69
2022-08-07T11:09:11.662Z,101033.41
2022-08-07T11:11:39.802Z,101036.47
2022-08-07T11:14:44.046Z,101038.09
2022-08-07T11:16:20.376Z,101031.91
2022-08-07T11:18:38.425Z,101024.25
2022-08-07T11:20:48.242Z,101012.09
2022-08-07T11:23:03.469Z,101007.19
2022-08-07T11:25:12.345Z,101007.38
2022-08-07T11:28:01.795Z,101009.91
2022-08-07T11:30:18.471Z,101009.88
2022-08-07T11:32:25.243Z,101019.03
2022-08-07T11:34:37.666Z,101006.22
2022-08-07T11:36:57.446Z,101004.84
2022-08-07T11:39:14.504Z,101004.34
2022-08-07T11:41:29.628Z,101008.97
2022-08-07T11:44:11.983Z,100999.84
2022-08-07T11:46:36.731Z,101002.66
2022-08-07T11:49:28.654Z,101001.75
2022-08-07T11:51:41.292Z,101010.47
2022-08-07T11:54:01.449Z,100998.84
2022-08-07T11:56:28.399Z,101000.44
2022-08-07T11:58:41.878Z,100994.00
2022-08-07T12:01:02.408Z,100990.41
2022-08-07T12:03:42.134Z,100987.47
2022-08-07T12:06:02.616Z,100989.28
2022-08-07T12:08:34.545Z,100984.50
2022-08-07T12:10:42.163Z,100985.00
2022-08-07T12:12:53.263Z,100974.38
2022-08-07T12:15:02.906Z,100975.31
2022-08-07T12:17:20.005Z,100972.09
2022-08-07T12:19:35.532Z,100976.44
2022-08-07T12:22:38.056Z,100972.91
2022-08-07T12:24:37.680Z,100971.56
2022-08-07T12:26:49.103Z,100974.50
2022-08-07T12:29:04.218Z,100969.22
2022-08-07T12:31:10.429Z,100976.44
2022-08-07T12:33:30.789Z,100970.63
2022-08-07T12:35:48.270Z,100965.44
2022-08-07T12:38:11.360Z,100969.00
2022-08-07T12:40:46.906Z,100969.09
2022-08-07T12:42:55.091Z,100971.78
2022-08-07T12:45:07.980Z,100970.44
2022-08-07T12:47:21.806Z,100970.97
2022-08-07T12:49:51.382Z,100964.97
2022-08-07T12:52:14.757Z,100959.38
2022-08-07T12:54:38.632Z,100962.06
2022-08-07T12:56:51.326Z,100953.13
2022-08-07T12:59:00.733Z,100962.09
2022-08-07T13:01:14.815Z,100961.97
2022-08-07T13:04:00.508Z,100961.41
2022-08-07T13:06:21.414Z,100950.44
2022-08-07T13:08:33.778Z,100951.03
2022-08-07T13:10:51.890Z,100950.88
2022-08-07T13:13:07.333Z,100952.91
2022-08-07T13:15:32.142Z,100947.94
2022-08-07T13:17:46.576Z,100946.81
2022-08-07T13:19:53.759Z,100935.94
2022-08-07T13:22:12.817Z,100937.44
2022-08-07T13:24:29.283Z,100928.91
2022-08-07T13:26:41.836Z,100929.53
2022-08-07T13:29:01.993Z,100937.22
2022-08-07T13:31:18.409Z,100929.78
2022-08-07T13:34:31.190Z,100924.34
2022-08-07T13:36:00.256Z,100924.34
2022-08-07T13:38:12.187Z,100918.63
2022-08-07T13:40:35.498Z,100921.75
2022-08-07T13:42:49.705Z,100923.56
2022-08-07T13:44:55.501Z,100919.56
2022-08-07T13:47:21.748Z,100911.09
2022-08-07T13:50:33.935Z,100901.88
2022-08-07T13:52:51.080Z,100915.28
2022-08-07T13:54:58.254Z,100900.44
2022-08-07T13:57:03.870Z,100897.91
2022-08-07T13:59:12.327Z,100896.03
2022-08-07T14:01:20.362Z,100890.28
2022-08-07T14:04:05.136Z,100893.41
2022-08-07T14:05:57.822Z,100902.47
2022-08-07T14:08:01.775Z,100889.97
2022-08-07T14:10:21.717Z,100890.06
2022-08-07T14:12:41.638Z,100898.09
2022-08-07T14:14:52.412Z,100886.50
2022-08-07T14:16:57.556Z,100886.97
2022-08-07T14:19:04.598Z,100884.19
2022-08-07T14:21:21.170Z,100881.69
2022-08-07T14:24:00.539Z,100884.06
2022-08-07T14:26:07.656Z,100874.34
2022-08-07T14:28:13.723Z,100885.22
2022-08-07T14:30:32.666Z,100881.31
2022-08-07T14:32:45.475Z,100869.69
2022-08-07T14:34:49.439Z,100870.00
2022-08-07T14:36:57.408Z,100874.16
2022-08-07T14:39:02.466Z,100869.50
2022-08-07T14:41:12.463Z,100862.94
2022-08-07T14:45:49.404Z,100863.34
2022-08-07T14:47:58.930Z,100869.50
2022-08-07T14:50:11.278Z,100876.00
2022-08-07T14:52:24.479Z,100867.09
2022-08-07T14:54:35.709Z,100871.06
2022-08-07T14:56:48.658Z,100862.34
2022-08-07T14:58:55.134Z,100863.97
2022-08-07T15:01:00.106Z,100855.69
2022-08-07T15:05:54.371Z,100848.94
2022-08-07T15:10:34.540Z,100850.34
2022-08-07T15:12:43.796Z,100854.41
2022-08-07T15:15:07.746Z,100842.31
2022-08-07T15:20:31.011Z,100831.69
2022-08-07T15:22:09.021Z,100840.72
2022-08-07T15:25:12.791Z,100831.78
2022-08-07T15:27:09.871Z,100836.66
2022-08-07T15:30:04.796Z,100832.19
2022-08-07T15:32:01.904Z,100826.50
2022-08-07T15:34:06.055Z,100823.03
2022-08-07T15:38:59.249Z,100830.66
2022-08-07T15:41:24.310Z,100823.28
2022-08-07T15:46:37.623Z,100820.59
2022-08-07T15:48:55.231Z,100815.25
2022-08-07T15:51:11.898Z,100824.06
2022-08-07T15:53:17.995Z,100823.44
2022-08-07T15:55:25.221Z,100816.72
2022-08-07T15:58:00.115Z,100819.19
2022-08-07T16:00:06.839Z,100823.94
2022-08-07T16:02:15.226Z,100811.13
2022-08-07T16:04:20.083Z,100817.13
2022-08-07T16:06:30.383Z,100809.44
2022-08-07T16:08:38.832Z,100806.63
2022-08-07T16:10:47.340Z,100805.44
2022-08-07T16:13:05.806Z,100806.47
2022-08-07T16:15:55.119Z,100802.22
2022-08-07T16:18:09.133Z,100803.41
2022-08-07T16:20:33.452Z,100796.78
2022-08-07T16:22:54.900Z,100801.59
2022-08-07T16:25:07.607Z,100797.72
2022-08-07T16:27:19.379Z,100797.63
2022-08-07T16:30:09.779Z,100794.66
2022-08-07T16:32:04.894Z,100796.44
2022-08-07T16:34:23.527Z,100792.66
2022-08-07T16:37:01.641Z,100803.13
2022-08-07T16:39:40.484Z,100796.19
2022-08-07T16:42:02.136Z,100796.44
2022-08-07T16:44:53.667Z,100799.53
2022-08-07T16:47:45.390Z,100798.94
2022-08-07T16:50:26.771Z,100797.31
2022-08-07T16:52:55.657Z,100805.66
2022-08-07T16:55:13.176Z,100798.44
2022-08-07T16:58:03.243Z,100798.72
2022-08-07T17:00:06.929Z,100807.31
2022-08-07T17:02:51.651Z,100806.59
2022-08-07T17:05:06.472Z,100801.09
2022-08-07T17:07:28.455Z,100794.19
2022-08-07T17:10:06.384Z,100803.50
2022-08-07T17:12:33.844Z,100803.31
2022-08-07T17:14:46.024Z,100795.22
2022-08-07T17:16:55.855Z,100796.84
2022-08-07T17:19:05.242Z,100796.09
2022-08-07T17:21:25.513Z,100803.00
2022-08-07T17:23:44.209Z,100801.59
2022-08-07T17:26:02.705Z,100803.63
2022-08-07T17:28:13.934Z,100804.59
2022-08-07T17:30:26.883Z,100811.19
2022-08-07T17:32:52.989Z,100804.75
2022-08-07T17:35:49.629Z,100813.53
2022-08-07T17:38:11.378Z,100808.28
2022-08-07T17:40:08.193Z,100807.25
2022-08-07T17:42:21.981Z,100804.97
2022-08-07T17:44:43.987Z,100814.41
2022-08-07T17:46:58.662Z,100817.78
2022-08-07T17:49:09.427Z,100816.22
2022-08-07T17:51:22.991Z,100810.78
2022-08-07T17:54:02.348Z,100812.28
2022-08-07T17:56:06.679Z,100816.84
2022-08-07T17:58:30.111Z,100814.94
2022-08-07T18:00:48.904Z,100821.66
2022-08-07T18:02:57.100Z,100820.84
2022-08-07T18:05:21.256Z,100827.75
2022-08-07T18:07:43.736Z,100827.00
2022-08-07T18:10:06.371Z,100823.44
2022-08-07T18:12:28.078Z,100826.59
2022-08-07T18:14:39.698Z,100834.66
2022-08-07T18:16:58.100Z,100832.31
2022-08-07T18:21:12.327Z,100832.22
2022-08-07T18:22:02.904Z,100834.22
2022-08-07T18:24:33.615Z,100837.16
2022-08-07T18:26:57.865Z,100839.66
2022-08-07T18:30:07.343Z,100835.44
2022-08-07T18:31:51.330Z,100838.72
2022-08-07T18:34:35.770Z,100839.22
2022-08-07T18:36:59.805Z,100835.16
2022-08-07T18:40:06.915Z,100842.34
2022-08-07T18:41:55.198Z,100839.63
2022-08-07T18:44:08.496Z,100846.47
2022-08-07T18:46:25.457Z,100851.97
2022-08-07T18:50:19.487Z,100848.50
2022-08-07T18:52:35.450Z,100847.03
2022-08-07T18:54:01.204Z,100854.44
2022-08-07T18:56:15.467Z,100861.72
2022-08-07T18:58:34.076Z,100857.19
2022-08-07T19:00:55.021Z,100860.91
2022-08-07T19:03:12.099Z,100867.28
2022-08-07T19:05:25.551Z,100862.50
2022-08-07T19:07:58.695Z,100874.16
2022-08-07T19:10:14.867Z,100871.47
2022-08-07T19:12:31.802Z,100878.34
2022-08-07T19:14:56.708Z,100885.94
2022-08-07T19:17:11.615Z,100885.16
2022-08-07T19:19:31.735Z,100893.38
2022-08-07T19:21:56.876Z,100888.56
2022-08-07T19:24:30.117Z,100889.09
2022-08-07T19:27:01.994Z,100905.09
2022-08-07T19:31:06.043Z,100908.81
2022-08-07T19:32:02.475Z,100909.56
2022-08-07T19:33:58.566Z,100919.56
2022-08-07T19:36:03.114Z,100921.69
2022-08-07T19:38:17.168Z,100919.03
2022-08-07T19:40:31.059Z,100932.03
2022-08-07T19:42:42.811Z,100928.75
2022-08-07T19:44:47.942Z,100929.75
2022-08-07T19:46:57.946Z,100934.94
2022-08-07T19:49:06.866Z,100932.34
2022-08-07T19:51:20.014Z,100928.63
2022-08-07T19:54:35.068Z,100932.41
2022-08-07T19:55:57.739Z,100935.47
2022-08-07T19:58:13.462Z,100932.81
2022-08-07T20:00:29.358Z,100931.25
2022-08-07T20:02:39.046Z,100939.31
2022-08-07T20:04:46.309Z,100941.13
2022-08-07T20:06:54.935Z,100941.25
2022-08-07T20:09:01.711Z,100945.94
2022-08-07T20:11:09.698Z,100944.63
2022-08-07T20:13:23.959Z,100942.84
2022-08-07T20:15:36.891Z,100942.22
2022-08-07T20:17:41.719Z,100951.22
2022-08-07T20:19:58.528Z,100951.13
2022-08-07T20:22:03.363Z,100946.16
2022-08-07T20:24:15.685Z,100952.38
2022-08-07T20:26:20.538Z,100950.78
2022-08-07T20:28:37.657Z,100942.91
2022-08-07T20:30:47.035Z,100958.03
2022-08-07T20:32:55.915Z,100954.00
2022-08-07T20:35:07.848Z,100953.28
2022-08-07T20:37:12.102Z,100958.41
2022-08-07T20:40:01.219Z,100956.78
2022-08-07T20:41:50.505Z,100956.00
2022-08-07T20:43:57.483Z,100948.88
2022-08-07T20:46:28.202Z,100952.53
2022-08-07T20:48:30.569Z,100949.03
2022-08-07T20:50:34.298Z,100950.19
2022-08-07T20:52:51.354Z,100945.84
2022-08-07T20:54:56.731Z,100943.31
2022-08-07T20:57:05.472Z,100945.00
2022-08-07T21:00:04.896Z,100947.06
2022-08-07T21:01:54.881Z,100943.63
2022-08-07T21:04:21.705Z,100934.06
2022-08-07T21:06:28.272Z,100932.38
2022-08-07T21:08:40.902Z,100934.31
2022-08-07T21:10:46.302Z,100929.97
2022-08-07T21:12:52.789Z,100918.59
2022-08-07T21:14:59.606Z,100924.78
2022-08-07T21:18:02.416Z,100927.38
2022-08-07T21:19:51.016Z,100928.28
2022-08-07T21:22:04.162Z,100928.28
2022-08-07T21:24:13.522Z,100925.88
2022-08-07T21:26:27.757Z,100930.59
2022-08-07T21:28:48.654Z,100920.91
2022-08-07T21:31:03.451Z,100928.03
2022-08-07T21:33:15.759Z,100925.25
2022-08-07T21:35:34.915Z,100922.91
2022-08-07T21:38:00.099Z,100915.88
2022-08-07T21:40:09.601Z,100915.88
2022-08-07T21:42:49.521Z,100923.06
2022-08-07T21:45:24.382Z,100917.13
2022-08-07T21:47:35.551Z,100917.75
2022-08-07T21:50:02.496Z,100920.88
2022-08-07T21:52:11.655Z,100920.13
2022-08-07T21:54:20.969Z,100922.19
2022-08-07T21:56:36.704Z,100929.34
2022-08-07T21:58:53.741Z,100921.88
2022-08-07T22:01:00.761Z,100921.25
2022-08-07T22:03:17.277Z,100913.50
2022-08-07T22:05:45.409Z,100917.31
2022-08-07T22:07:57.809Z,100920.25
2022-08-07T22:10:03.810Z,100919.19
2022-08-07T22:12:21.635Z,100915.78
2022-08-07T22:14:34.894Z,100921.38
2022-08-07T22:16:47.748Z,100929.31
2022-08-07T22:19:01.135Z,100933.69
2022-08-07T22:21:15.355Z,100926.16
2022-08-07T22:23:22.976Z,100930.63
2022-08-07T22:25:36.254Z,100933.28
2022-08-07T22:28:30.823Z,100937.97
2022-08-07T22:30:15.808Z,100930.28
2022-08-07T22:32:25.388Z,100932.81
2022-08-07T22:34:38.398Z,100932.81
2022-08-07T22:36:52.627Z,100938.25
2022-08-07T22:39:02.221Z,100940.16
2022-08-07T22:41:16.136Z,100941.00
2022-08-07T22:43:33.806Z,100945.41
2022-08-07T22:46:40.701Z,100936.84
2022-08-07T22:48:54.662Z,100938.56
2022-08-07T22:51:02.446Z,100942.13
2022-08-07T22:54:05.480Z,100947.31
2022-08-07T22:55:58.154Z,100948.25
2022-08-07T22:58:11.717Z,100952.81
2022-08-07T23:00:18.881Z,100949.47
2022-08-07T23:02:46.256Z,100945.25
2022-08-07T23:06:07.353Z,100951.56
2022-08-07T23:07:41.540Z,100947.13
2022-08-07T23:10:05.281Z,100945.50
2022-08-07T23:12:35.681Z,100941.75
2022-08-07T23:14:50.184Z,100946.31
2022-08-07T23:17:15.937Z,100944.88
2022-08-07T23:20:03.181Z,100939.66
2022-08-07T23:22:21.584Z,100941.31
2022-08-07T23:24:38.775Z,100941.38
2022-08-07T23:27:01.871Z,100942.31
2022-08-07T23:29:43.563Z,100951.25
2022-08-07T23:34:22.387Z,100950.59
2022-08-07T23:34:52.400Z,100945.41
2022-08-07T23:37:20.030Z,100942.84
2022-08-07T23:39:40.840Z,100951.59
2022-08-07T23:42:04.818Z,100945.56
2022-08-07T23:44:29.583Z,100943.06
2022-08-07T23:46:57.706Z,100942.97
2022-08-07T23:49:42.122Z,100944.75
2022-08-07T23:53:06.210Z,100941.28
2022-08-07T23:54:36.143Z,100942.25
2022-08-07T23:56:55.918Z,100940.47
2022-08-07T23:59:10.428Z,100940.41
